Time;durP1;ratioP1;P1;durP2;ratioP2;P2;SDS_P1;SDS_P2;PMS_P1;PMS_P2;Temp;Humidity;BMP_temperature;BMP_pressure;BME280_temperature;BME280_humidity;BME280_pressure;Samples;Min_cycle;Max_cycle;Signal;HPM_P1;HPM_P2
2023/06/30 00:00:46;;;;;;;31.38;18.60;;;19.40;99.90;;;;;;4988283;28;20541;-48
2023/06/30 00:03:15;;;;;;;28.48;17.65;;;19.40;99.90;;;;;;4988497;28;20026;-50
2023/06/30 00:05:40;;;;;;;28.08;17.50;;;19.40;99.90;;;;;;4979647;28;20507;-50
2023/06/30 00:08:08;;;;;;;31.52;17.65;;;19.30;99.90;;;;;;4988392;28;20109;-51
2023/06/30 00:10:34;;;;;;;24.05;16.33;;;19.40;99.90;;;;;;4987957;28;20073;-48
2023/06/30 00:13:00;;;;;;;25.98;17.73;;;19.30;99.90;;;;;;4970013;28;20070;-50
2023/06/30 00:15:25;;;;;;;27.65;17.92;;;19.30;99.90;;;;;;4987364;28;20031;-48
2023/06/30 00:17:52;;;;;;;25.50;17.80;;;19.30;99.90;;;;;;4985591;28;20272;-50
2023/06/30 00:20:18;;;;;;;26.38;16.73;;;19.30;99.90;;;;;;4986995;28;20405;-51
2023/06/30 00:22:44;;;;;;;25.70;18.67;;;19.30;99.90;;;;;;5001885;28;20027;-50
2023/06/30 00:25:10;;;;;;;26.63;18.20;;;19.30;99.90;;;;;;5002009;28;20242;-48
2023/06/30 00:27:35;;;;;;;26.23;18.27;;;19.30;99.90;;;;;;5001567;28;20144;-47
2023/06/30 00:30:01;;;;;;;27.38;17.65;;;19.20;99.90;;;;;;4987355;28;20109;-47
2023/06/30 00:32:31;;;;;;;25.38;16.15;;;19.20;99.90;;;;;;5003189;28;20027;-47
2023/06/30 00:34:57;;;;;;;23.73;16.58;;;19.20;99.90;;;;;;4988509;28;20018;-50
2023/06/30 00:37:22;;;;;;;28.33;17.85;;;19.20;99.90;;;;;;4987470;28;20391;-48
2023/06/30 00:39:48;;;;;;;29.15;17.77;;;19.20;99.90;;;;;;4988013;28;20101;-49
2023/06/30 00:42:13;;;;;;;23.25;17.27;;;19.20;99.90;;;;;;4970838;28;20109;-48
2023/06/30 00:44:39;;;;;;;29.10;16.60;;;19.10;99.90;;;;;;4988050;28;20436;-51
2023/06/30 00:47:05;;;;;;;26.17;18.60;;;19.10;99.90;;;;;;4987744;28;20056;-47
2023/06/30 00:49:31;;;;;;;29.15;18.15;;;19.10;99.90;;;;;;4988114;28;20458;-50
2023/06/30 00:51:57;;;;;;;24.60;17.20;;;19.10;99.90;;;;;;4970110;28;20403;-47
2023/06/30 00:54:24;;;;;;;27.35;17.58;;;19.10;99.90;;;;;;4970473;28;20329;-48
2023/06/30 00:56:49;;;;;;;28.30;17.15;;;19.10;99.90;;;;;;4987866;28;20033;-49
2023/06/30 00:59:15;;;;;;;24.77;17.08;;;19.10;99.90;;;;;;4987457;28;20656;-48
2023/06/30 01:01:53;;;;;;;25.15;17.80;;;19.10;99.90;;;;;;4987921;28;20030;-50
2023/06/30 01:04:52;;;;;;;26.83;17.67;;;19.10;99.90;;;;;;4988430;28;20027;-49
2023/06/30 01:07:27;;;;;;;25.85;17.65;;;19.00;99.90;;;;;;4953552;28;20066;-49
2023/06/30 01:10:03;;;;;;;24.95;16.13;;;19.00;99.90;;;;;;4970493;28;20113;-49
2023/06/30 01:12:29;;;;;;;35.35;20.48;;;19.00;99.90;;;;;;4969238;28;20062;-49
2023/06/30 01:14:55;;;;;;;30.30;18.55;;;19.00;99.90;;;;;;4987868;28;20031;-48
2023/06/30 01:17:24;;;;;;;28.10;18.10;;;19.00;99.90;;;;;;4986870;28;20030;-48
2023/06/30 01:19:53;;;;;;;34.92;20.25;;;19.00;99.90;;;;;;4987568;28;20026;-48
2023/06/30 01:22:22;;;;;;;30.33;18.75;;;19.00;99.90;;;;;;4987956;28;20498;-48
2023/06/30 01:24:50;;;;;;;32.28;20.00;;;19.00;99.90;;;;;;4987866;28;20054;-49
2023/06/30 01:27:16;;;;;;;29.48;19.88;;;19.00;99.90;;;;;;4987132;28;20113;-50
2023/06/30 01:29:42;;;;;;;31.48;20.88;;;19.00;99.90;;;;;;4969880;28;20171;-49
2023/06/30 01:32:16;;;;;;;35.38;22.08;;;18.90;99.90;;;;;;4987549;28;20484;-48
2023/06/30 01:34:46;;;;;;;35.83;21.98;;;18.90;99.90;;;;;;4987431;28;20026;-49
2023/06/30 01:37:13;;;;;;;33.80;22.60;;;18.90;99.90;;;;;;4986795;28;20027;-48
2023/06/30 01:39:40;;;;;;;35.75;23.45;;;18.90;99.90;;;;;;4987386;28;20050;-48
2023/06/30 01:42:05;;;;;;;34.25;21.38;;;18.80;99.90;;;;;;4987533;28;20467;-47
2023/06/30 01:44:32;;;;;;;34.78;21.63;;;18.80;99.90;;;;;;4987509;28;20022;-50
2023/06/30 01:46:57;;;;;;;31.35;21.02;;;18.80;99.90;;;;;;4986706;28;20386;-49
2023/06/30 01:49:23;;;;;;;32.55;20.42;;;18.80;99.90;;;;;;4987326;28;20117;-48
2023/06/30 01:51:49;;;;;;;32.50;21.25;;;18.80;99.90;;;;;;4986882;28;20625;-49
2023/06/30 01:54:14;;;;;;;33.10;22.15;;;18.80;99.90;;;;;;4969609;28;20031;-49
2023/06/30 01:56:48;;;;;;;39.55;22.55;;;18.70;99.90;;;;;;4986622;28;20054;-48
2023/06/30 01:59:14;;;;;;;32.92;21.83;;;18.70;99.90;;;;;;4987429;28;20025;-48
2023/06/30 02:01:39;;;;;;;34.47;22.42;;;18.70;99.90;;;;;;4969832;28;20023;-47
2023/06/30 02:04:05;;;;;;;41.17;23.45;;;18.70;99.90;;;;;;4987937;28;20029;-47
2023/06/30 02:06:30;;;;;;;36.95;24.15;;;18.70;99.90;;;;;;4990015;28;20525;-50
2023/06/30 02:08:56;;;;;;;39.65;23.70;;;18.60;99.90;;;;;;4990790;28;20022;-47
2023/06/30 02:11:21;;;;;;;33.08;21.50;;;18.60;99.90;;;;;;4990443;28;20058;-48
2023/06/30 02:13:47;;;;;;;40.53;25.45;;;18.60;99.90;;;;;;4990827;28;20448;-48
2023/06/30 02:16:13;;;;;;;36.00;22.77;;;18.50;99.90;;;;;;4990182;28;20034;-48
2023/06/30 02:18:39;;;;;;;38.10;23.58;;;18.50;99.90;;;;;;4972381;28;20034;-51
2023/06/30 02:21:05;;;;;;;42.03;24.23;;;18.50;99.90;;;;;;4990314;28;20029;-51
2023/06/30 02:23:30;;;;;;;39.55;22.73;;;18.50;99.90;;;;;;4989909;28;20101;-48
2023/06/30 02:25:56;;;;;;;35.83;24.02;;;18.50;99.90;;;;;;4972964;28;20055;-47
2023/06/30 02:28:22;;;;;;;36.17;24.08;;;18.50;99.90;;;;;;4972401;28;20030;-48
2023/06/30 02:30:47;;;;;;;35.97;23.48;;;18.50;99.90;;;;;;4990530;28;20030;-48
2023/06/30 02:33:13;;;;;;;38.75;23.67;;;18.50;99.90;;;;;;4990292;28;20026;-47
2023/06/30 02:35:38;;;;;;;34.78;22.48;;;18.50;99.90;;;;;;4990206;28;20109;-48
2023/06/30 02:38:05;;;;;;;31.45;21.48;;;18.40;99.90;;;;;;4989670;28;20038;-47
2023/06/30 02:40:31;;;;;;;35.78;22.70;;;18.40;99.90;;;;;;4989867;28;20018;-48
2023/06/30 02:42:56;;;;;;;36.35;22.65;;;18.40;99.90;;;;;;4990244;28;20395;-48
2023/06/30 02:45:22;;;;;;;43.33;26.27;;;18.40;99.90;;;;;;4990023;28;20114;-47
2023/06/30 02:47:47;;;;;;;35.97;24.23;;;18.30;99.90;;;;;;4972406;28;20493;-48
2023/06/30 02:50:13;;;;;;;38.90;25.67;;;18.30;99.90;;;;;;4989891;28;20041;-48
2023/06/30 02:52:38;;;;;;;36.42;24.13;;;18.30;99.90;;;;;;4989860;28;20057;-49
2023/06/30 02:55:04;;;;;;;36.88;23.95;;;18.30;99.90;;;;;;4989800;28;20030;-49
2023/06/30 02:57:30;;;;;;;39.38;24.33;;;18.20;99.90;;;;;;4989035;28;20299;-48
2023/06/30 02:59:55;;;;;;;38.15;23.67;;;18.20;99.90;;;;;;4984526;28;20083;-48
2023/06/30 03:02:21;;;;;;;33.65;22.23;;;18.20;99.90;;;;;;4989251;28;20041;-47
2023/06/30 03:04:47;;;;;;;43.78;24.05;;;18.20;99.90;;;;;;4989672;28;20330;-47
2023/06/30 03:07:13;;;;;;;41.35;25.50;;;18.10;99.90;;;;;;4989255;28;20097;-47
2023/06/30 03:09:39;;;;;;;41.03;25.58;;;18.10;99.90;;;;;;4989505;28;20054;-47
2023/06/30 03:12:05;;;;;;;38.42;24.67;;;18.10;99.90;;;;;;4989468;28;20058;-50
2023/06/30 03:14:30;;;;;;;37.85;23.45;;;18.10;99.90;;;;;;4989000;28;20027;-47
2023/06/30 03:16:56;;;;;;;45.38;25.35;;;18.10;99.90;;;;;;4988447;28;20031;-48
2023/06/30 03:19:21;;;;;;;35.35;23.45;;;18.00;99.90;;;;;;4989217;28;20250;-49
2023/06/30 03:21:47;;;;;;;35.50;24.05;;;18.00;99.90;;;;;;4980567;28;20061;-47
2023/06/30 03:24:12;;;;;;;40.80;25.73;;;18.00;99.90;;;;;;4985278;28;20391;-48
2023/06/30 03:26:38;;;;;;;44.72;27.20;;;18.00;99.90;;;;;;4971312;28;20499;-50
2023/06/30 03:29:03;;;;;;;37.03;23.70;;;18.00;99.90;;;;;;4989050;28;20038;-50
2023/06/30 03:31:29;;;;;;;41.83;26.77;;;18.00;99.90;;;;;;4989634;28;20041;-50
2023/06/30 03:33:54;;;;;;;43.75;26.73;;;18.00;99.90;;;;;;4989698;28;20109;-51
2023/06/30 03:36:20;;;;;;;45.70;28.98;;;18.00;99.90;;;;;;4988439;28;20048;-50
2023/06/30 03:38:45;;;;;;;42.03;27.00;;;18.00;99.90;;;;;;4993219;28;20022;-48
2023/06/30 03:41:11;;;;;;;51.55;27.88;;;18.00;99.90;;;;;;4989534;28;20034;-50
2023/06/30 03:43:36;;;;;;;41.67;26.10;;;18.00;99.90;;;;;;4988596;28;20015;-47
2023/06/30 03:46:02;;;;;;;41.53;27.02;;;18.10;99.90;;;;;;4966910;28;20030;-48
2023/06/30 03:48:27;;;;;;;39.28;25.90;;;18.10;99.90;;;;;;4988473;28;20053;-48
2023/06/30 03:50:53;;;;;;;39.42;25.92;;;18.00;99.90;;;;;;4988326;28;20076;-48
2023/06/30 03:53:20;;;;;;;40.33;24.60;;;18.10;99.90;;;;;;4978169;28;20050;-49
2023/06/30 03:55:45;;;;;;;39.25;24.08;;;18.10;99.90;;;;;;4983781;28;20033;-47
2023/06/30 03:58:11;;;;;;;51.38;28.88;;;18.10;99.90;;;;;;4979375;28;20035;-47
2023/06/30 04:00:36;;;;;;;43.45;26.80;;;18.10;99.90;;;;;;4977455;28;20035;-47
2023/06/30 04:03:02;;;;;;;44.60;26.67;;;18.10;99.90;;;;;;5004768;28;20048;-49
2023/06/30 04:05:27;;;;;;;39.88;26.33;;;18.10;99.90;;;;;;4992426;28;20018;-48
2023/06/30 04:07:53;;;;;;;47.45;28.10;;;18.10;99.90;;;;;;4979119;28;20584;-49
2023/06/30 04:10:18;;;;;;;47.47;28.83;;;18.10;99.90;;;;;;4980924;28;20027;-48
2023/06/30 04:12:44;;;;;;;43.08;27.15;;;18.10;99.90;;;;;;4989692;28;20038;-48
2023/06/30 04:15:10;;;;;;;47.53;27.55;;;18.20;99.90;;;;;;4979685;28;20335;-51
2023/06/30 04:17:37;;;;;;;43.13;27.95;;;18.20;99.90;;;;;;4962141;28;20031;-47
2023/06/30 04:20:07;;;;;;;47.95;29.83;;;18.20;99.90;;;;;;4977083;28;20097;-48
2023/06/30 04:22:32;;;;;;;47.22;28.90;;;18.20;99.90;;;;;;4979507;28;20085;-49
2023/06/30 04:24:59;;;;;;;46.17;27.98;;;18.20;99.90;;;;;;4977957;28;20498;-48
2023/06/30 04:27:24;;;;;;;44.60;28.40;;;18.20;99.90;;;;;;4978099;28;20041;-48
2023/06/30 04:29:50;;;;;;;48.47;29.27;;;18.20;99.90;;;;;;4977279;28;20023;-48
2023/06/30 04:32:15;;;;;;;48.65;31.20;;;18.20;99.90;;;;;;4980703;28;20109;-47
2023/06/30 04:34:41;;;;;;;53.75;32.25;;;18.20;99.90;;;;;;4978444;28;20171;-50
2023/06/30 04:37:06;;;;;;;52.97;31.83;;;18.20;99.90;;;;;;4968912;28;20467;-48
2023/06/30 04:39:32;;;;;;;52.05;31.70;;;18.20;99.90;;;;;;4988398;28;20076;-48
2023/06/30 04:41:57;;;;;;;49.47;29.65;;;18.20;99.90;;;;;;4988325;28;20026;-47
2023/06/30 04:44:23;;;;;;;53.55;30.73;;;18.20;99.90;;;;;;4982161;28;20018;-48
2023/06/30 04:46:49;;;;;;;52.53;33.38;;;18.20;99.90;;;;;;4959435;28;20034;-48
2023/06/30 04:49:15;;;;;;;45.38;28.08;;;18.20;99.90;;;;;;4987774;28;20061;-51
2023/06/30 04:51:40;;;;;;;46.95;29.00;;;18.30;99.90;;;;;;4977423;28;20509;-48
2023/06/30 04:54:06;;;;;;;45.67;29.38;;;18.30;99.90;;;;;;4994288;28;20075;-48
2023/06/30 04:56:31;;;;;;;48.67;28.55;;;18.30;99.90;;;;;;4982401;28;20387;-51
2023/06/30 04:58:57;;;;;;;50.72;30.98;;;18.30;99.90;;;;;;4987384;28;20310;-47
2023/06/30 05:01:22;;;;;;;46.47;28.25;;;18.30;99.90;;;;;;4976961;28;20503;-49
2023/06/30 05:03:48;;;;;;;54.92;30.27;;;18.30;99.90;;;;;;4970218;28;20485;-50
2023/06/30 05:06:14;;;;;;;42.83;26.60;;;18.30;99.90;;;;;;4987726;28;20038;-48
2023/06/30 05:08:39;;;;;;;48.75;29.17;;;18.30;99.90;;;;;;4987500;28;20045;-48
2023/06/30 05:11:05;;;;;;;48.28;30.58;;;18.30;99.90;;;;;;4987369;28;20036;-49
2023/06/30 05:13:31;;;;;;;42.00;27.38;;;18.30;99.90;;;;;;4979213;28;20049;-50
2023/06/30 05:15:57;;;;;;;44.58;27.50;;;18.30;99.90;;;;;;4987411;28;20033;-49
2023/06/30 05:18:22;;;;;;;45.67;27.75;;;18.40;99.90;;;;;;4978802;28;20034;-50
2023/06/30 05:20:48;;;;;;;46.63;29.10;;;18.40;99.90;;;;;;4987614;28;20385;-52
2023/06/30 05:23:13;;;;;;;43.60;27.98;;;18.30;99.90;;;;;;4987225;28;20082;-52
2023/06/30 05:25:39;;;;;;;46.67;28.58;;;18.30;99.90;;;;;;4959286;28;20030;-48
2023/06/30 05:28:04;;;;;;;48.80;26.75;;;18.30;99.90;;;;;;4976038;28;20048;-47
2023/06/30 05:30:30;;;;;;;43.15;27.67;;;18.30;99.90;;;;;;4987387;28;20079;-51
2023/06/30 05:32:55;;;;;;;43.72;28.83;;;18.40;99.90;;;;;;4987545;28;20030;-51
2023/06/30 05:35:21;;;;;;;49.88;29.05;;;18.30;99.90;;;;;;4987259;28;20087;-48
2023/06/30 05:37:47;;;;;;;47.58;29.05;;;18.30;99.90;;;;;;4986674;28;20029;-48
2023/06/30 05:40:12;;;;;;;51.03;30.33;;;18.30;99.90;;;;;;4993445;28;20051;-50
2023/06/30 05:42:38;;;;;;;43.22;27.88;;;18.30;99.90;;;;;;4979212;28;20403;-51
2023/06/30 05:45:04;;;;;;;45.90;27.38;;;18.30;99.90;;;;;;4968787;28;20494;-48
2023/06/30 05:47:29;;;;;;;41.08;27.15;;;18.30;99.90;;;;;;4985656;28;20118;-51
2023/06/30 05:49:55;;;;;;;41.30;25.10;;;18.30;99.90;;;;;;4986225;28;20031;-49
2023/06/30 05:52:24;;;;;;;39.67;24.35;;;18.30;99.90;;;;;;4985656;28;20109;-50
2023/06/30 05:54:50;;;;;;;40.97;24.50;;;18.20;99.90;;;;;;5004961;28;20025;-51
2023/06/30 05:57:16;;;;;;;43.05;25.50;;;18.20;99.90;;;;;;5003293;28;20120;-48
2023/06/30 05:59:41;;;;;;;38.20;23.75;;;18.20;99.90;;;;;;4986789;28;20364;-50
2023/06/30 06:02:07;;;;;;;37.53;22.42;;;18.20;99.90;;;;;;5000925;28;20482;-51
2023/06/30 06:04:32;;;;;;;35.47;22.70;;;18.20;99.90;;;;;;4987021;28;20033;-51
2023/06/30 06:07:01;;;;;;;35.95;23.52;;;18.20;99.90;;;;;;4986578;28;20470;-50
2023/06/30 06:09:27;;;;;;;36.80;21.95;;;18.20;99.90;;;;;;5001741;28;20069;-49
2023/06/30 06:11:52;;;;;;;39.22;22.13;;;18.10;99.90;;;;;;5088856;28;20055;-50
2023/06/30 06:14:19;;;;;;;38.03;20.35;;;18.10;99.90;;;;;;5030287;28;20031;-49
2023/06/30 06:16:45;;;;;;;28.40;19.35;;;18.00;99.90;;;;;;4986406;28;20030;-50
2023/06/30 06:19:11;;;;;;;34.67;18.95;;;18.00;99.90;;;;;;4986829;28;20033;-51
2023/06/30 06:21:37;;;;;;;28.08;18.25;;;17.90;99.90;;;;;;4986337;28;20042;-48
2023/06/30 06:24:03;;;;;;;26.60;14.88;;;17.80;99.90;;;;;;4986701;28;20035;-49
2023/06/30 06:26:29;;;;;;;20.25;13.77;;;17.70;99.90;;;;;;4986082;28;20023;-49
2023/06/30 06:28:54;;;;;;;21.90;14.38;;;17.60;99.90;;;;;;4986638;28;20033;-48
2023/06/30 06:31:20;;;;;;;18.92;12.07;;;17.50;99.90;;;;;;4986631;28;20515;-51
2023/06/30 06:33:45;;;;;;;17.25;11.32;;;17.50;99.90;;;;;;4986714;28;20026;-51
2023/06/30 06:36:11;;;;;;;19.00;9.52;;;17.40;99.90;;;;;;4986324;28;20023;-51
2023/06/30 06:38:37;;;;;;;13.93;8.60;;;17.30;99.90;;;;;;4985806;28;20062;-51
2023/06/30 06:41:03;;;;;;;15.23;9.32;;;17.30;99.90;;;;;;4986652;28;20387;-51
2023/06/30 06:43:28;;;;;;;19.38;8.75;;;17.20;99.90;;;;;;4983569;28;20030;-52
2023/06/30 06:45:54;;;;;;;13.00;8.27;;;17.10;99.90;;;;;;4964213;28;20022;-51
2023/06/30 06:48:24;;;;;;;15.43;8.27;;;17.10;99.90;;;;;;4975877;28;20084;-51
2023/06/30 06:51:00;;;;;;;14.27;8.65;;;17.10;99.90;;;;;;4963803;28;20566;-51
2023/06/30 06:53:32;;;;;;;14.60;9.25;;;17.10;99.90;;;;;;4977513;28;20050;-52
2023/06/30 06:55:58;;;;;;;17.73;10.18;;;17.10;99.90;;;;;;4977557;28;20471;-49
2023/06/30 06:58:26;;;;;;;16.80;8.73;;;17.10;99.90;;;;;;4987041;28;20052;-50
2023/06/30 07:00:52;;;;;;;12.35;7.50;;;17.10;99.90;;;;;;4992553;28;20054;-50
2023/06/30 07:03:19;;;;;;;12.20;7.50;;;17.20;99.90;;;;;;4980308;28;20011;-50
2023/06/30 07:05:44;;;;;;;12.10;7.25;;;17.20;99.90;;;;;;4984538;28;20065;-50
2023/06/30 07:08:11;;;;;;;14.48;7.60;;;17.30;99.90;;;;;;4983094;28;20053;-50
2023/06/30 07:10:37;;;;;;;11.88;6.15;;;17.30;99.90;;;;;;4980169;28;20394;-50
2023/06/30 07:13:03;;;;;;;8.48;6.15;;;17.20;99.90;;;;;;4979597;28;20027;-49
2023/06/30 07:15:29;;;;;;;11.68;6.57;;;17.20;99.90;;;;;;4983355;28;20394;-51
2023/06/30 07:17:58;;;;;;;9.85;5.60;;;17.30;99.90;;;;;;4982270;28;20038;-49
2023/06/30 07:20:24;;;;;;;7.32;5.78;;;17.30;99.90;;;;;;4978631;28;20686;-51
2023/06/30 07:22:54;;;;;;;10.15;6.88;;;17.20;99.90;;;;;;4980042;28;20053;-50
2023/06/30 07:25:19;;;;;;;9.05;6.40;;;17.30;99.90;;;;;;4979606;28;20025;-50
2023/06/30 07:27:54;;;;;;;9.50;6.38;;;17.20;99.90;;;;;;4979904;28;20391;-49
2023/06/30 07:30:21;;;;;;;10.32;6.45;;;17.20;99.90;;;;;;4989738;28;20034;-49
2023/06/30 07:32:46;;;;;;;9.82;6.55;;;17.10;99.90;;;;;;4979927;28;20039;-51
2023/06/30 07:35:12;;;;;;;11.27;6.70;;;17.00;99.90;;;;;;4979395;28;20053;-50
2023/06/30 07:37:38;;;;;;;9.77;6.88;;;17.00;99.90;;;;;;4978480;28;20026;-51
2023/06/30 07:40:06;;;;;;;13.73;7.68;;;17.00;99.90;;;;;;4977505;28;20507;-51
2023/06/30 07:42:32;;;;;;;11.65;8.05;;;16.90;99.90;;;;;;4981760;28;20018;-52
2023/06/30 07:44:57;;;;;;;11.18;8.48;;;16.90;99.90;;;;;;4980054;28;20372;-50
2023/06/30 07:47:23;;;;;;;14.30;8.45;;;16.90;99.90;;;;;;4977775;28;20394;-50
2023/06/30 07:49:48;;;;;;;12.18;8.68;;;16.90;99.90;;;;;;4977819;28;20018;-50
2023/06/30 07:52:14;;;;;;;12.73;7.97;;;16.80;99.90;;;;;;4984447;28;20061;-50
2023/06/30 07:54:41;;;;;;;10.68;6.95;;;16.70;99.90;;;;;;4988509;28;20366;-51
2023/06/30 07:57:07;;;;;;;9.85;7.78;;;16.80;99.90;;;;;;4987946;28;20027;-49
2023/06/30 07:59:33;;;;;;;11.93;7.40;;;16.70;99.90;;;;;;4988795;28;20037;-50
2023/06/30 08:01:59;;;;;;;13.48;7.22;;;16.70;99.90;;;;;;4988454;28;20027;-50
2023/06/30 08:04:24;;;;;;;9.43;7.22;;;16.70;99.90;;;;;;4968031;28;20045;-51
2023/06/30 08:06:50;;;;;;;7.50;6.65;;;16.70;99.90;;;;;;4969672;28;20022;-51
2023/06/30 08:09:15;;;;;;;8.52;6.45;;;16.70;99.90;;;;;;4967636;28;20034;-47
2023/06/30 08:11:41;;;;;;;10.32;6.97;;;16.70;99.90;;;;;;4978764;28;20101;-48
2023/06/30 08:14:06;;;;;;;6.95;5.80;;;16.70;99.90;;;;;;4988270;28;20041;-51
2023/06/30 08:16:32;;;;;;;8.98;5.43;;;16.70;99.90;;;;;;4979682;28;20038;-49
2023/06/30 08:18:58;;;;;;;9.95;5.57;;;16.60;99.90;;;;;;4978459;28;20038;-49
2023/06/30 08:21:24;;;;;;;8.80;6.25;;;16.70;99.90;;;;;;4978923;28;20104;-49
2023/06/30 08:23:50;;;;;;;10.55;6.93;;;16.70;99.90;;;;;;4987937;28;20247;-48
2023/06/30 08:26:15;;;;;;;9.45;6.93;;;16.70;99.90;;;;;;4980971;28;20022;-51
2023/06/30 08:28:41;;;;;;;13.52;7.82;;;16.80;99.90;;;;;;4983797;28;20022;-48
2023/06/30 08:31:06;;;;;;;9.52;7.50;;;16.90;99.90;;;;;;4970096;28;20053;-51
2023/06/30 08:33:32;;;;;;;11.90;7.55;;;16.90;99.90;;;;;;4988351;28;20297;-49
2023/06/30 08:35:58;;;;;;;9.48;6.43;;;16.90;99.90;;;;;;4986897;28;20027;-49
2023/06/30 08:38:24;;;;;;;8.65;6.57;;;16.90;99.90;;;;;;4980488;28;20038;-47
2023/06/30 08:40:49;;;;;;;10.68;6.97;;;16.90;99.90;;;;;;4986525;28;20027;-51
2023/06/30 08:43:16;;;;;;;8.65;6.35;;;17.00;99.90;;;;;;4989316;28;20495;-51
2023/06/30 08:45:43;;;;;;;8.98;6.97;;;17.00;99.90;;;;;;4962783;28;20472;-48
2023/06/30 08:48:11;;;;;;;8.90;7.00;;;17.00;99.90;;;;;;5071204;28;20021;-52
2023/06/30 08:50:38;;;;;;;9.45;7.53;;;17.00;99.90;;;;;;4992830;28;20037;-50
2023/06/30 08:53:04;;;;;;;9.30;7.32;;;17.00;99.90;;;;;;4979882;28;20034;-50
2023/06/30 08:55:30;;;;;;;9.73;8.00;;;17.00;99.90;;;;;;4982167;28;20027;-50
2023/06/30 08:57:57;;;;;;;13.00;7.78;;;16.90;99.90;;;;;;4985568;28;20042;-52
2023/06/30 09:00:24;;;;;;;15.48;8.82;;;17.00;99.90;;;;;;4988617;28;20333;-52
2023/06/30 09:02:53;;;;;;;10.65;7.90;;;17.00;99.90;;;;;;4986677;28;20709;-52
2023/06/30 09:05:20;;;;;;;9.85;7.75;;;17.00;99.90;;;;;;4988687;28;20020;-50
2023/06/30 09:07:57;;;;;;;10.85;7.88;;;17.00;99.90;;;;;;4971021;28;20546;-52
2023/06/30 09:10:33;;;;;;;9.30;8.30;;;16.90;99.90;;;;;;4988352;28;20034;-51
2023/06/30 09:13:00;;;;;;;9.27;8.27;;;16.80;99.90;;;;;;5003195;28;20023;-49
2023/06/30 09:15:26;;;;;;;11.57;8.57;;;16.80;99.90;;;;;;4987547;28;20026;-51
2023/06/30 09:17:52;;;;;;;13.05;9.60;;;16.80;99.90;;;;;;4984944;28;20026;-50
2023/06/30 09:20:20;;;;;;;9.82;7.97;;;16.80;99.90;;;;;;4988461;28;20391;-49
2023/06/30 09:22:46;;;;;;;11.10;9.07;;;16.80;99.90;;;;;;4988561;28;20424;-50
2023/06/30 09:25:27;;;;;;;13.15;9.63;;;16.80;99.90;;;;;;5006361;28;20030;-51
2023/06/30 09:27:53;;;;;;;;;;;16.80;99.90;;;;;;4988599;28;20030;-50
2023/06/30 09:30:18;;;;;;;11.90;9.73;;;16.80;99.90;;;;;;4987822;28;19909;-49
2023/06/30 09:32:44;;;;;;;13.00;10.05;;;16.90;99.90;;;;;;4986240;28;20547;-51
2023/06/30 09:35:18;;;;;;;11.05;9.90;;;17.00;99.90;;;;;;4986047;28;20407;-51
2023/06/30 09:37:44;;;;;;;17.25;10.80;;;17.10;99.90;;;;;;4975407;28;20034;-50
2023/06/30 09:40:23;;;;;;;14.18;11.50;;;17.10;99.90;;;;;;4986486;28;20023;-52
2023/06/30 09:42:55;;;;;;;15.18;11.95;;;17.10;99.90;;;;;;4982641;28;20053;-52
2023/06/30 09:45:21;;;;;;;16.23;12.13;;;17.10;99.90;;;;;;4977649;28;20031;-50
2023/06/30 09:47:55;;;;;;;14.38;12.88;;;17.20;99.90;;;;;;4987675;28;20034;-52
2023/06/30 09:50:24;;;;;;;14.93;12.93;;;17.20;99.90;;;;;;4988835;28;20083;-49
2023/06/30 09:52:50;;;;;;;15.63;13.30;;;17.30;99.90;;;;;;4988584;28;20031;-48
2023/06/30 09:55:16;;;;;;;16.20;12.68;;;17.40;99.90;;;;;;4988675;28;20565;-51
2023/06/30 09:57:43;;;;;;;14.65;12.32;;;17.50;99.90;;;;;;4988374;28;20050;-51
2023/06/30 10:00:19;;;;;;;13.88;11.32;;;17.50;99.90;;;;;;4988479;28;20065;-52
2023/06/30 10:02:44;;;;;;;14.23;11.68;;;17.60;99.90;;;;;;4988650;28;20114;-51
2023/06/30 10:05:10;;;;;;;15.43;10.60;;;17.70;99.90;;;;;;4988219;28;20026;-51
2023/06/30 10:07:40;;;;;;;11.32;10.18;;;17.60;99.90;;;;;;4987576;28;20034;-49
2023/06/30 10:10:09;;;;;;;12.88;10.00;;;17.80;99.90;;;;;;4988802;28;20034;-51
2023/06/30 10:12:35;;;;;;;14.60;10.77;;;17.90;99.90;;;;;;4988211;28;20031;-49
2023/06/30 10:15:02;;;;;;;12.18;10.57;;;18.00;99.90;;;;;;4988138;28;20087;-51
2023/06/30 10:17:29;;;;;;;14.85;10.73;;;18.00;99.90;;;;;;4987980;28;20031;-51
2023/06/30 10:19:55;;;;;;;11.73;10.52;;;18.00;99.90;;;;;;4987793;28;20049;-51
2023/06/30 10:22:21;;;;;;;15.05;10.52;;;18.10;99.90;;;;;;4988078;28;20530;-51
2023/06/30 10:24:48;;;;;;;11.40;9.63;;;18.10;99.90;;;;;;4987072;28;20486;-51
2023/06/30 10:27:18;;;;;;;8.82;7.93;;;18.20;99.90;;;;;;4988655;28;20058;-54
2023/06/30 10:29:46;;;;;;;11.90;8.68;;;18.40;99.90;;;;;;4990266;28;20030;-49
2023/06/30 10:32:12;;;;;;;11.20;8.02;;;18.50;99.90;;;;;;4989680;28;20144;-51
2023/06/30 10:34:38;;;;;;;9.00;8.10;;;18.70;99.90;;;;;;4990884;28;20105;-51
2023/06/30 10:37:04;;;;;;;9.48;7.20;;;19.10;99.90;;;;;;4990276;28;20034;-51
2023/06/30 10:39:30;;;;;;;7.93;7.13;;;19.30;99.90;;;;;;4985898;28;20460;-52
2023/06/30 10:41:59;;;;;;;7.82;7.07;;;19.40;99.90;;;;;;4983472;28;20015;-49
2023/06/30 10:44:44;;;;;;;8.32;6.93;;;19.50;99.90;;;;;;4977023;28;20037;-53
2023/06/30 10:47:10;;;;;;;6.40;5.80;;;19.60;99.90;;;;;;4990320;28;20034;-52
2023/06/30 10:49:39;;;;;;;7.65;6.13;;;19.70;99.90;;;;;;4972291;28;20116;-51
2023/06/30 10:52:09;;;;;;;6.22;5.63;;;20.20;99.90;;;;;;4990582;28;20091;-49
2023/06/30 10:54:48;;;;;;;6.57;5.38;;;20.60;99.90;;;;;;4990421;28;20030;-50
2023/06/30 10:57:18;;;;;;;6.07;4.82;;;21.00;99.90;;;;;;4988917;28;20576;-50
2023/06/30 11:00:01;;;;;;;5.00;3.90;;;21.30;99.90;;;;;;4989862;28;20075;-50
2023/06/30 11:02:33;;;;;;;5.40;3.97;;;21.30;99.90;;;;;;4971062;28;20168;-48
2023/06/30 11:05:32;;;;;;;3.80;3.50;;;21.20;99.90;;;;;;4986032;28;20475;-50
2023/06/30 11:08:01;;;;;;;4.00;3.55;;;21.30;99.90;;;;;;4987620;28;20315;-49
2023/06/30 11:10:32;;;;;;;4.93;3.65;;;21.90;99.90;;;;;;4985331;28;20033;-49
2023/06/30 11:13:09;;;;;;;3.72;3.35;;;22.40;99.90;;;;;;4982433;28;20026;-48
2023/06/30 11:15:37;;;;;;;5.80;3.97;;;22.60;99.90;;;;;;4985628;28;20515;-49
2023/06/30 11:18:06;;;;;;;4.40;3.20;;;22.50;99.90;;;;;;5005549;28;20030;-49
2023/06/30 11:20:32;;;;;;;4.82;3.60;;;22.40;99.90;;;;;;4987543;28;20029;-49
2023/06/30 11:22:59;;;;;;;4.85;3.88;;;22.30;99.90;;;;;;4988942;28;20315;-49
2023/06/30 11:25:24;;;;;;;4.80;3.60;;;22.20;99.90;;;;;;4985280;28;20487;-47
2023/06/30 11:27:50;;;;;;;4.32;3.63;;;22.00;99.90;;;;;;4988065;28;20041;-49
2023/06/30 11:30:18;;;;;;;3.80;3.40;;;22.10;99.90;;;;;;4988790;28;20038;-50
2023/06/30 11:32:45;;;;;;;3.63;3.10;;;22.10;99.90;;;;;;4984884;28;20015;-53
2023/06/30 11:35:12;;;;;;;6.75;3.63;;;22.20;99.90;;;;;;4952586;28;20026;-50
2023/06/30 11:37:38;;;;;;;3.88;3.58;;;22.30;99.90;;;;;;4969201;28;20427;-49
2023/06/30 11:40:05;;;;;;;4.03;3.15;;;22.30;99.90;;;;;;4969825;28;20031;-49
2023/06/30 11:42:32;;;;;;;4.40;3.63;;;22.30;99.90;;;;;;4987537;28;20026;-50
2023/06/30 11:44:57;;;;;;;3.42;3.00;;;22.20;99.90;;;;;;5004204;28;20564;-50
2023/06/30 11:47:23;;;;;;;3.58;3.25;;;22.20;99.90;;;;;;4988185;28;20034;-51
2023/06/30 11:49:50;;;;;;;4.35;3.08;;;22.40;99.90;;;;;;4988491;28;20045;-49
2023/06/30 11:52:17;;;;;;;6.05;3.42;;;22.50;99.90;;;;;;4970406;28;20041;-50
2023/06/30 11:54:43;;;;;;;4.10;3.28;;;22.60;99.90;;;;;;4988449;28;20140;-50
2023/06/30 11:57:09;;;;;;;3.58;3.10;;;22.40;99.90;;;;;;4989105;28;20108;-50
2023/06/30 11:59:35;;;;;;;4.05;3.20;;;22.20;99.90;;;;;;4991010;28;20396;-50
2023/06/30 12:02:02;;;;;;;3.72;3.17;;;22.10;99.90;;;;;;5008626;28;20030;-50
2023/06/30 12:04:33;;;;;;;3.60;3.30;;;22.10;99.90;;;;;;5004303;28;20031;-50
2023/06/30 12:07:00;;;;;;;5.18;2.83;;;22.00;99.90;;;;;;4990912;28;20018;-51
2023/06/30 12:09:26;;;;;;;6.68;3.25;;;22.00;99.90;;;;;;4981897;28;20037;-52
2023/06/30 12:11:51;;;;;;;4.55;3.10;;;22.00;99.90;;;;;;4971271;28;20387;-51
2023/06/30 12:14:18;;;;;;;4.43;3.25;;;21.90;99.90;;;;;;4995058;28;20391;-49
2023/06/30 12:16:45;;;;;;;3.58;2.88;;;21.80;99.90;;;;;;4986136;28;20023;-50
2023/06/30 12:19:12;;;;;;;3.72;2.97;;;21.70;99.90;;;;;;4987169;28;20018;-50
2023/06/30 12:21:59;;;;;;;3.55;2.85;;;21.60;99.90;;;;;;4962415;28;20023;-48
2023/06/30 12:24:29;;;;;;;3.47;3.17;;;21.50;99.90;;;;;;4994165;28;20062;-51
2023/06/30 12:26:55;;;;;;;3.83;3.20;;;21.40;99.90;;;;;;4970192;28;20039;-51
2023/06/30 12:29:21;;;;;;;5.20;3.60;;;21.40;99.90;;;;;;4988578;28;20026;-50
2023/06/30 12:31:47;;;;;;;4.35;3.60;;;21.40;99.90;;;;;;4987254;28;20096;-51